Port Stanley, Canada
Current Conditions -  °F | °C
As of 11:00 PM on Wednesday 26 Nov 2014 (Local Time) from CYXU Reporting Station
Overcast Overcast  
Wind Chill: 25°   Ceiling: 4800
Heat Index: 30°   Visibility: 15mi
Dew Point: 27°   Wind: 5mph
Humidity: 86%   Direction: 40°NE
Pressure: 30.05"   Gusts: NA
Location:  42.67°N, 81.22°W
Report Text: CYXU 270400Z 04004KT 15SM OVC048 M01/M03 A3005 RMK SC8 SLP187
Loading
Personal Weather Stations






























Interactive Weather Map New forecast layout! Learn more

10-Day Weather Forecast

Advertisements
Track Severe Weather on mobile